Norton, Massachusetts
Current Conditions -  °F | °C
As of 11:52 PM on Saturday 22 Nov 2014 (Local Time) from KTAN Reporting Station
Scattered Clouds Scattered Clouds  
Wind Chill: 40°   Ceiling: Unl
Heat Index: 45°   Visibility: 10mi
Dew Point: 27°   Wind: 9mph
Humidity: 49%   Direction: 220°SW
Pressure: 30.1"   Gusts: 20mph
Location:  41.97°N, 71.19°W
Report Text: KTAN 230452Z AUTO 22008G17KT 10SM SCT085 07/M03 A3010 RMK AO2 SLP192 T00721028 400721061
Loading
Personal Weather Stations






























Interactive Weather Map New forecast layout! Learn more

10-Day Weather Forecast

Advertisements
Track Severe Weather on mobile